Time;durP1;ratioP1;P1;durP2;ratioP2;P2;SDS_P1;SDS_P2;PMS_P1;PMS_P2;Temp;Humidity;BMP_temperature;BMP_pressure;BME280_temperature;BME280_humidity;BME280_pressure;Samples;Min_cycle;Max_cycle;Signal;HPM_P1;HPM_P2
2021/12/07 00:01:59;;;;;;;14.95;12.18;;;;;;;0.23;91.50;100474.28;4964279;28;20038;-66
2021/12/07 00:04:25;;;;;;;13.07;11.68;;;;;;;0.27;91.67;100480.94;4962567;28;20375;-66
2021/12/07 00:06:50;;;;;;;14.70;12.75;;;;;;;0.26;91.44;100479.28;4953252;28;20030;-66
2021/12/07 00:09:17;;;;;;;14.57;12.52;;;;;;;0.26;91.70;100485.19;4953159;28;20460;-65
2021/12/07 00:11:45;;;;;;;14.38;12.77;;;;;;;0.21;91.83;100473.53;4967873;28;20031;-66
2021/12/07 00:14:13;;;;;;;16.05;14.35;;;;;;;0.25;91.83;100475.06;4972846;28;20022;-66
2021/12/07 00:16:41;;;;;;;17.00;13.00;;;;;;;0.23;92.04;100469.19;4951425;29;20080;-66
2021/12/07 00:19:06;;;;;;;15.65;13.30;;;;;;;0.29;91.88;100479.16;4968168;28;20046;-66
2021/12/07 00:21:31;;;;;;;16.45;14.23;;;;;;;0.25;92.05;100472.53;4960345;28;20027;-66
2021/12/07 00:23:57;;;;;;;16.80;15.00;;;;;;;0.28;91.88;100477.47;4952852;28;20035;-66
2021/12/07 00:26:23;;;;;;;18.52;16.17;;;;;;;0.29;92.14;100484.25;4960926;28;20035;-66
2021/12/07 00:28:50;;;;;;;18.30;16.33;;;;;;;0.30;92.20;100485.91;4959099;28;20054;-66
2021/12/07 00:31:28;;;;;;;17.67;15.57;;;;;;;0.32;92.43;100484.09;4991322;28;20405;-66
2021/12/07 00:36:33;;;;;;;20.23;17.98;;;;;;;0.34;92.36;100500.16;4991402;28;20128;-66
2021/12/07 00:38:58;;;;;;;20.02;17.10;;;;;;;0.35;92.67;100489.09;4991409;28;20026;-66
2021/12/07 00:41:24;;;;;;;20.45;17.58;;;;;;;0.36;92.88;100498.38;4973864;28;20048;-66
2021/12/07 00:43:49;;;;;;;19.80;17.70;;;;;;;0.37;93.14;100502.59;4991149;28;20473;-67
2021/12/07 00:46:15;;;;;;;22.52;18.88;;;;;;;0.38;93.12;100499.13;4991068;28;20034;-67
2021/12/07 00:48:40;;;;;;;22.27;18.45;;;;;;;0.38;93.38;100504.22;4991228;28;20034;-66
2021/12/07 00:51:06;;;;;;;20.50;17.58;;;;;;;0.43;93.38;100512.50;4991391;28;20048;-66
2021/12/07 00:53:31;;;;;;;22.08;18.63;;;;;;;0.44;93.52;100513.34;4991112;28;20454;-66
2021/12/07 00:56:03;;;;;;;23.45;19.80;;;;;;;0.43;93.49;100512.50;4988508;28;20031;-66
2021/12/07 00:58:30;;;;;;;25.17;20.83;;;;;;;0.50;93.79;100519.00;4982596;28;20058;-66
2021/12/07 01:01:05;;;;;;;22.83;18.88;;;;;;;0.55;93.98;100520.50;4965682;28;20093;-66
2021/12/07 01:03:30;;;;;;;23.95;20.00;;;;;;;0.57;93.96;100528.91;4990697;28;20022;-66
2021/12/07 01:06:13;;;;;;;25.15;19.95;;;;;;;0.64;94.30;100540.53;4991160;28;20045;-66
2021/12/07 01:25:14;;;;;;;27.40;20.30;;;;;;;0.87;94.35;100552.25;4984542;28;20148;-67
2021/12/07 01:27:40;;;;;;;25.35;18.73;;;;;;;0.88;94.43;100570.03;4991235;28;20410;-66
2021/12/07 01:30:18;;;;;;;25.05;18.67;;;;;;;0.89;94.64;100569.13;4991626;28;20058;-67
2021/12/07 01:46:21;;;;;;;24.60;15.50;;;;;;;1.13;94.91;100597.81;4975506;28;20446;-66
2021/12/07 01:50:09;;;;;;;24.83;16.00;;;;;;;1.14;94.97;100606.31;4974738;28;20050;-66
2021/12/07 01:59:50;;;;;;;24.80;17.48;;;;;;;1.26;95.22;100615.97;4975083;28;20174;-67
2021/12/07 02:02:17;;;;;;;26.50;18.08;;;;;;;1.29;95.58;100621.78;4975342;28;20022;-66
2021/12/07 02:04:44;;;;;;;27.60;18.80;;;;;;;1.26;95.16;100623.63;4974622;28;20041;-67
2021/12/07 02:07:10;;;;;;;30.77;16.98;;;;;;;1.29;95.32;100620.94;4976758;28;20132;-65
2021/12/07 02:09:38;;;;;;;27.67;17.10;;;;;;;1.32;95.39;100626.75;4974632;28;20045;-67
2021/12/07 02:12:06;;;;;;;27.77;16.83;;;;;;;1.32;95.49;100636.16;4992134;28;20041;-66
2021/12/07 02:14:32;;;;;;;26.98;14.88;;;;;;;1.38;95.80;100630.75;4993833;28;20138;-66
2021/12/07 02:17:00;;;;;;;29.27;15.68;;;;;;;1.40;95.57;100646.81;4993390;28;20050;-66
2021/12/07 02:19:26;;;;;;;25.05;13.95;;;;;;;1.47;96.09;100647.38;4993880;28;20116;-66
2021/12/07 02:21:54;;;;;;;28.45;14.10;;;;;;;1.49;96.06;100643.00;4980389;28;20467;-68
2021/12/07 02:24:20;;;;;;;23.17;11.75;;;;;;;1.51;96.07;100652.28;4974247;28;20031;-66
2021/12/07 02:26:47;;;;;;;23.27;11.27;;;;;;;1.52;95.65;100659.03;4974356;28;20390;-66
2021/12/07 02:29:14;;;;;;;25.65;11.73;;;;;;;1.55;96.25;100664.00;4956544;28;20442;-66
2021/12/07 02:31:39;;;;;;;22.30;10.32;;;;;;;1.57;96.19;100664.75;4961238;28;20043;-66
2021/12/07 02:34:06;;;;;;;24.40;10.52;;;;;;;1.57;95.68;100653.72;4966697;28;20023;-67
2021/12/07 02:36:31;;;;;;;23.95;9.10;;;;;;;1.59;95.71;100662.13;4954722;28;20031;-66
2021/12/07 02:38:58;;;;;;;25.50;8.88;;;;;;;1.60;95.80;100672.28;4956335;28;20031;-66
2021/12/07 02:41:23;;;;;;;25.85;8.90;;;;;;;1.66;95.46;100660.09;4953763;28;20469;-67
2021/12/07 02:43:48;;;;;;;24.65;8.35;;;;;;;1.63;95.49;100670.50;4954452;28;20473;-66
2021/12/07 02:46:14;;;;;;;23.48;7.55;;;;;;;1.62;95.74;100673.94;4969965;28;20041;-65
2021/12/07 02:48:40;;;;;;;20.38;7.65;;;;;;;1.66;95.87;100685.66;4958271;28;20154;-66
2021/12/07 02:51:05;;;;;;;20.48;7.07;;;;;;;1.63;95.64;100686.66;4954692;28;20058;-68
2021/12/07 02:53:33;;;;;;;20.10;7.00;;;;;;;1.60;95.12;100692.72;4970393;28;20033;-66
2021/12/07 02:56:01;;;;;;;23.23;7.07;;;;;;;1.66;95.27;100695.88;4967769;28;20030;-66
2021/12/07 02:58:26;;;;;;;17.58;6.47;;;;;;;1.65;95.40;100701.91;4950898;28;20394;-66
2021/12/07 03:01:02;;;;;;;19.60;6.53;;;;;;;1.64;95.20;100697.69;4973330;28;20030;-66
2021/12/07 03:03:32;;;;;;;20.27;6.22;;;;;;;1.60;95.13;100702.94;4954443;28;20031;-66
2021/12/07 03:06:52;;;;;;;20.60;6.97;;;;;;;1.65;95.33;100701.91;4961946;28;20047;-66
2021/12/07 03:28:06;;;;;;;18.60;5.15;;;;;;;1.59;94.92;100728.59;4972879;28;20042;-67
2021/12/07 03:30:31;;;;;;;19.23;5.35;;;;;;;1.57;94.79;100733.78;4966163;28;20117;-67
2021/12/07 03:32:56;;;;;;;16.05;4.97;;;;;;;1.57;94.33;100738.88;4968770;28;20109;-67
2021/12/07 03:35:22;;;;;;;16.63;5.32;;;;;;;1.57;94.51;100738.06;4972891;28;20490;-66
2021/12/07 03:37:47;;;;;;;19.45;4.95;;;;;;;1.53;94.82;100744.19;4955465;28;20031;-66
2021/12/07 03:40:14;;;;;;;18.77;5.38;;;;;;;1.51;94.74;100749.38;4972893;28;20034;-67
2021/12/07 03:42:40;;;;;;;22.40;5.72;;;;;;;1.52;94.80;100761.25;4971551;28;20042;-66
2021/12/07 03:45:07;;;;;;;17.73;4.82;;;;;;;1.48;94.73;100759.75;4970928;28;20463;-66
2021/12/07 03:47:32;;;;;;;18.58;5.57;;;;;;;1.47;94.26;100760.63;4953461;28;20124;-66
2021/12/07 03:49:58;;;;;;;18.65;5.22;;;;;;;1.49;94.50;100766.53;4953625;28;20459;-67
2021/12/07 03:52:23;;;;;;;18.40;5.13;;;;;;;1.49;94.37;100776.75;4960757;28;20394;-66
2021/12/07 03:54:49;;;;;;;16.63;4.82;;;;;;;1.48;94.26;100769.97;4964004;28;20370;-67
2021/12/07 03:57:14;;;;;;;18.25;4.97;;;;;;;1.48;94.38;100769.97;4965759;28;20491;-67
2021/12/07 03:59:40;;;;;;;18.95;4.60;;;;;;;1.49;94.58;100769.09;4970496;28;20046;-67
2021/12/07 04:02:07;;;;;;;13.45;4.95;;;;;;;1.49;94.84;100766.53;4958931;28;20042;-66
2021/12/07 04:04:32;;;;;;;22.15;4.45;;;;;;;1.47;94.56;100778.53;4972729;28;20027;-66
2021/12/07 04:06:57;;;;;;;23.10;5.75;;;;;;;1.45;94.83;100780.34;4972708;28;20393;-67
2021/12/07 04:09:23;;;;;;;23.30;5.50;;;;;;;1.44;94.60;100775.31;4954627;28;20041;-67
2021/12/07 04:11:49;;;;;;;18.70;4.93;;;;;;;1.44;94.28;100777.84;4971958;28;20042;-67
2021/12/07 04:14:14;;;;;;;20.52;4.78;;;;;;;1.43;94.28;100792.34;4968869;28;20031;-67
2021/12/07 04:16:39;;;;;;;22.17;5.10;;;;;;;1.44;94.77;100794.00;4945226;28;20431;-67
2021/12/07 04:19:05;;;;;;;17.08;5.10;;;;;;;1.46;94.66;100792.22;4972171;28;20062;-67
2021/12/07 04:21:30;;;;;;;18.27;4.85;;;;;;;1.40;94.50;100779.72;4972219;28;20027;-66
2021/12/07 04:23:55;;;;;;;19.00;4.80;;;;;;;1.44;94.51;100781.25;4956532;28;20035;-67
2021/12/07 04:26:21;;;;;;;20.95;4.95;;;;;;;1.38;94.59;100781.50;4954595;28;20026;-66
2021/12/07 04:28:47;;;;;;;16.60;5.20;;;;;;;1.40;94.60;100787.38;4960942;28;20070;-66
2021/12/07 04:31:14;;;;;;;16.75;4.68;;;;;;;1.39;94.58;100795.94;4952726;28;20425;-67
2021/12/07 04:33:40;;;;;;;20.40;4.65;;;;;;;1.37;94.35;100794.34;4956743;28;20390;-66
2021/12/07 04:36:10;;;;;;;17.35;4.93;;;;;;;1.37;94.60;100787.50;4972026;28;20538;-67
2021/12/07 04:38:36;;;;;;;17.35;5.05;;;;;;;1.37;94.34;100791.78;4955913;28;20031;-67
2021/12/07 04:41:01;;;;;;;20.48;5.47;;;;;;;1.39;94.70;100801.06;4952796;28;20030;-66
2021/12/07 04:43:27;;;;;;;21.58;5.22;;;;;;;1.36;94.54;100813.13;4964817;28;20468;-67
2021/12/07 04:46:02;;;;;;;16.25;4.85;;;;;;;1.38;94.58;100813.88;4959023;28;20078;-68
2021/12/07 04:59:26;;;;;;;18.85;4.38;;;;;;;1.33;94.37;100796.22;4958677;28;20066;-66
2021/12/07 05:01:51;;;;;;;22.20;4.25;;;;;;;1.33;94.90;100821.75;4967541;28;20023;-67
2021/12/07 05:04:22;;;;;;;17.92;4.20;;;;;;;1.33;94.93;100829.44;4970429;28;20530;-67
2021/12/07 05:06:51;;;;;;;16.58;4.57;;;;;;;1.36;94.31;100820.78;4974511;28;20022;-67
2021/12/07 05:11:53;;;;;;;16.30;3.92;;;;;;;1.37;94.53;100836.03;4977542;28;19957;-67
2021/12/07 05:14:23;;;;;;;20.10;4.32;;;;;;;1.37;94.79;100833.50;4957985;28;20382;-67
2021/12/07 05:25:26;;;;;;;16.50;4.50;;;;;;;1.36;94.22;100836.94;4959604;28;20047;-66
2021/12/07 05:38:43;;;;;;;16.95;4.20;;;;;;;1.37;95.05;100860.78;4972808;28;20037;-67
2021/12/07 05:41:09;;;;;;;17.13;4.05;;;;;;;1.40;94.25;100878.53;4973100;28;20014;-67
2021/12/07 05:43:35;;;;;;;19.55;3.80;;;;;;;1.38;94.80;100886.28;4972157;28;20054;-67
2021/12/07 05:46:03;;;;;;;19.63;6.88;;;;;;;1.39;94.64;100882.81;4967187;28;20035;-67
2021/12/07 05:48:28;;;;;;;17.33;5.10;;;;;;;1.36;94.58;100893.16;4969297;28;20513;-66
2021/12/07 05:50:54;;;;;;;14.63;3.55;;;;;;;1.34;94.55;100892.41;4969391;28;20030;-66
2021/12/07 05:53:19;;;;;;;16.40;3.63;;;;;;;1.34;94.60;100905.19;4970756;28;20037;-67
2021/12/07 05:55:45;;;;;;;15.88;4.00;;;;;;;1.34;94.32;100894.97;4974253;28;20109;-66
2021/12/07 05:58:12;;;;;;;16.48;4.03;;;;;;;1.33;94.66;100906.09;4974416;28;20066;-66
2021/12/07 06:00:41;;;;;;;20.52;3.95;;;;;;;1.33;nan;100913.75;4974381;28;20053;-67
2021/12/07 06:03:08;;;;;;;16.33;3.92;;;;;;;1.37;94.67;100917.81;4972434;28;20073;-66
2021/12/07 06:05:36;;;;;;;17.52;4.15;;;;;;;1.34;94.39;100915.41;4973227;28;20056;-66
2021/12/07 06:08:02;;;;;;;17.98;3.95;;;;;;;1.30;94.25;100911.31;4970268;28;20037;-66
2021/12/07 06:10:27;;;;;;;18.00;4.65;;;;;;;1.29;94.33;100918.16;4971197;28;20039;-66
2021/12/07 06:12:53;;;;;;;19.13;4.22;;;;;;;1.27;94.02;100914.00;4972259;28;20475;-66
2021/12/07 06:15:21;;;;;;;15.25;4.07;;;;;;;1.25;94.47;100905.56;4956230;28;20065;-66
2021/12/07 06:17:48;;;;;;;14.07;3.60;;;;;;;1.25;94.14;100908.13;4973501;28;20027;-66
2021/12/07 06:20:14;;;;;;;17.52;4.22;;;;;;;1.20;94.31;100908.28;4973615;28;20034;-66
2021/12/07 06:22:39;;;;;;;15.45;4.10;;;;;;;1.20;94.34;100892.13;4974129;28;20383;-66
2021/12/07 06:25:06;;;;;;;19.00;4.22;;;;;;;1.19;94.14;100895.59;4956608;28;20482;-66
2021/12/07 06:27:32;;;;;;;17.08;4.35;;;;;;;1.15;94.26;100905.13;4969085;28;20035;-67
2021/12/07 06:29:57;;;;;;;14.00;4.15;;;;;;;1.17;94.01;100912.72;4971363;28;20065;-67
2021/12/07 06:32:23;;;;;;;14.27;3.92;;;;;;;1.14;94.03;100913.66;4962642;28;20116;-67
2021/12/07 06:34:49;;;;;;;14.45;4.13;;;;;;;1.13;94.08;100923.94;4973801;28;20077;-67
2021/12/07 06:37:14;;;;;;;17.10;4.20;;;;;;;1.13;94.16;100936.72;4973743;28;20475;-72
2021/12/07 06:39:40;;;;;;;17.45;4.18;;;;;;;1.08;94.11;100934.34;4956064;28;20360;-68
2021/12/07 06:42:05;;;;;;;13.60;4.00;;;;;;;1.10;93.67;100937.69;4972567;28;20114;-72
2021/12/07 06:44:30;;;;;;;16.00;4.95;;;;;;;1.04;93.86;100928.53;4971333;28;20030;-72
2021/12/07 06:46:56;;;;;;;15.57;6.40;;;;;;;1.04;94.47;100933.66;4967390;28;20070;-67
2021/12/07 06:49:21;;;;;;;21.48;8.70;;;;;;;0.97;94.10;100916.91;4965251;28;20475;-67
2021/12/07 06:51:50;;;;;;;18.25;6.80;;;;;;;1.01;93.93;100928.66;4972479;28;20062;-68
2021/12/07 06:54:16;;;;;;;19.30;6.72;;;;;;;1.00;94.55;100927.00;4972229;28;20451;-67
2021/12/07 06:56:42;;;;;;;19.35;7.00;;;;;;;0.99;94.54;100933.00;4973312;28;20073;-66
2021/12/07 06:59:08;;;;;;;21.52;7.88;;;;;;;0.96;94.15;100930.56;4972050;28;20042;-67
2021/12/07 07:01:34;;;;;;;22.42;8.50;;;;;;;0.94;94.09;100927.25;4968277;28;20027;-67
2021/12/07 07:04:00;;;;;;;18.83;7.75;;;;;;;0.89;94.30;100939.38;4963534;28;20418;-67
2021/12/07 07:06:26;;;;;;;19.42;8.45;;;;;;;0.91;94.30;100936.75;4960444;28;20034;-65
2021/12/07 07:08:51;;;;;;;20.95;8.48;;;;;;;0.90;94.38;100941.03;4955137;28;20030;-66
2021/12/07 07:11:18;;;;;;;20.75;8.20;;;;;;;0.87;94.07;100946.25;4967026;28;20041;-66
2021/12/07 07:13:48;;;;;;;18.13;8.35;;;;;;;0.88;94.45;100950.47;4953766;28;20464;-67
2021/12/07 07:16:15;;;;;;;20.65;8.50;;;;;;;0.82;93.85;100945.63;4972075;28;20026;-66
2021/12/07 07:18:41;;;;;;;21.23;9.43;;;;;;;0.80;94.04;100939.72;4971264;28;20387;-68
2021/12/07 07:21:07;;;;;;;19.58;9.05;;;;;;;0.82;94.37;100943.06;4972399;28;20114;-67
2021/12/07 07:23:33;;;;;;;21.60;9.38;;;;;;;0.81;94.04;100938.84;4972518;28;20411;-68
2021/12/07 07:25:59;;;;;;;23.77;10.30;;;;;;;0.79;94.28;100938.06;4972175;28;20041;-66
2021/12/07 07:28:29;;;;;;;27.10;10.32;;;;;;;0.79;94.41;100938.88;4965225;28;20055;-67
2021/12/07 07:30:57;;;;;;;26.20;9.50;;;;;;;0.78;94.16;100956.81;4935669;29;20458;-66
2021/12/07 07:33:23;;;;;;;29.73;14.15;;;;;;;0.78;93.99;100956.81;4946685;29;20069;-66
2021/12/07 07:35:48;;;;;;;27.05;13.00;;;;;;;0.77;94.12;100960.28;4946317;29;20019;-67
2021/12/07 07:38:15;;;;;;;28.95;10.80;;;;;;;0.78;94.64;100961.94;4922892;29;20032;-67
2021/12/07 07:40:44;;;;;;;22.48;10.52;;;;;;;0.78;94.42;100965.31;4947177;29;20075;-67
2021/12/07 07:43:10;;;;;;;26.50;10.80;;;;;;;0.79;94.29;100968.69;4946790;29;20369;-66
2021/12/07 07:45:35;;;;;;;29.08;11.20;;;;;;;0.80;94.55;100962.69;4953482;29;20026;-67
2021/12/07 07:48:01;;;;;;;28.15;10.73;;;;;;;0.78;94.57;100960.22;4949397;29;20031;-67
2021/12/07 07:50:26;;;;;;;26.77;9.93;;;;;;;0.77;95.06;100952.63;4952993;29;20066;-67
2021/12/07 07:52:51;;;;;;;26.30;11.77;;;;;;;0.79;94.78;100953.38;4952730;29;20031;-68
2021/12/07 07:55:17;;;;;;;25.38;10.75;;;;;;;0.75;94.70;100946.75;4951339;29;20110;-68
2021/12/07 07:57:42;;;;;;;26.65;10.45;;;;;;;0.79;94.88;100948.28;4951373;29;20031;-68
2021/12/07 08:00:11;;;;;;;27.23;10.73;;;;;;;0.76;94.50;100938.19;4950267;29;20050;-68
2021/12/07 08:02:37;;;;;;;24.30;9.98;;;;;;;0.79;94.74;100945.72;4949498;29;20050;-67
2021/12/07 08:05:03;;;;;;;25.20;11.00;;;;;;;0.78;94.44;100952.53;4948703;29;20023;-66
2021/12/07 08:07:29;;;;;;;27.20;10.73;;;;;;;0.81;94.43;100946.50;4952134;29;20027;-66
2021/12/07 08:09:54;;;;;;;24.60;10.63;;;;;;;0.84;94.79;100941.25;4952544;29;20102;-67
2021/12/07 08:12:20;;;;;;;32.28;11.10;;;;;;;0.87;94.35;100953.09;4953850;28;20478;-67
2021/12/07 08:14:45;;;;;;;28.30;11.63;;;;;;;0.85;94.80;100948.03;4943117;29;20103;-68
2021/12/07 08:17:10;;;;;;;29.73;10.73;;;;;;;0.90;95.10;100951.25;4949895;29;20054;-68
2021/12/07 08:19:37;;;;;;;28.77;11.15;;;;;;;0.89;94.62;100954.69;4949424;29;20471;-66
2021/12/07 08:22:03;;;;;;;28.83;11.40;;;;;;;0.89;94.75;100954.69;4952203;29;20027;-66
2021/12/07 08:24:28;;;;;;;29.05;11.05;;;;;;;0.94;94.69;100957.91;4950136;29;20439;-67
2021/12/07 08:26:54;;;;;;;28.42;11.07;;;;;;;0.96;94.95;100966.31;4951834;29;20038;-67
2021/12/07 08:29:19;;;;;;;26.83;10.23;;;;;;;0.98;94.65;100972.22;4959191;28;20051;-69
2021/12/07 08:31:45;;;;;;;30.90;11.02;;;;;;;1.00;94.55;100977.25;4962889;28;20031;-68
2021/12/07 08:34:10;;;;;;;28.27;11.07;;;;;;;1.02;94.90;100976.28;4971940;28;20471;-68
2021/12/07 08:36:36;;;;;;;27.77;10.95;;;;;;;1.03;94.71;100967.75;4972067;28;20151;-67
2021/12/07 08:39:03;;;;;;;26.25;11.23;;;;;;;1.06;94.86;100966.78;4971499;28;20394;-67
2021/12/07 08:41:28;;;;;;;29.52;10.48;;;;;;;1.09;95.02;100976.03;4960103;28;20154;-67
2021/12/07 08:43:54;;;;;;;26.05;10.55;;;;;;;1.05;94.42;100971.06;4969445;28;20493;-67
2021/12/07 08:46:19;;;;;;;24.88;10.82;;;;;;;1.09;94.68;100976.03;4961965;28;20032;-68
2021/12/07 08:48:45;;;;;;;23.20;10.23;;;;;;;1.08;95.11;100975.22;4952523;28;20030;-67
2021/12/07 08:51:13;;;;;;;22.63;10.07;;;;;;;1.10;94.85;100987.94;4963546;28;20391;-68
2021/12/07 08:53:47;;;;;;;23.85;9.88;;;;;;;1.09;94.92;100983.69;4954269;28;20041;-67
2021/12/07 09:01:41;;;;;;;23.80;8.52;;;;;;;1.12;94.86;100970.81;4963135;28;20046;-67
2021/12/07 09:04:07;;;;;;;21.80;9.63;;;;;;;1.15;94.62;100965.56;4969929;28;20031;-67
2021/12/07 09:06:32;;;;;;;22.60;8.80;;;;;;;1.14;94.50;100959.63;4971704;28;20128;-68
2021/12/07 09:08:58;;;;;;;26.35;8.93;;;;;;;1.17;94.65;100953.59;4971697;28;20520;-67
2021/12/07 09:11:25;;;;;;;21.35;9.15;;;;;;;1.18;94.82;100955.25;4976632;28;20038;-67
2021/12/07 09:13:51;;;;;;;18.40;7.82;;;;;;;1.20;94.87;100956.00;4972035;28;20391;-67
2021/12/07 09:16:20;;;;;;;19.52;8.88;;;;;;;1.21;94.92;100955.13;4969694;28;20042;-69
2021/12/07 09:18:46;;;;;;;18.98;7.65;;;;;;;1.26;94.43;100953.19;4971448;28;20066;-66
2021/12/07 09:21:12;;;;;;;16.80;7.85;;;;;;;1.26;94.41;100958.31;4971154;28;20039;-67
2021/12/07 09:23:38;;;;;;;16.70;7.50;;;;;;;1.26;94.74;100942.97;4970063;28;20042;-66
2021/12/07 09:26:06;;;;;;;20.65;8.13;;;;;;;1.28;94.71;100957.38;4946748;28;20026;-68
2021/12/07 09:28:31;;;;;;;18.42;7.45;;;;;;;1.32;94.75;100955.53;4964022;28;20106;-67
2021/12/07 09:30:57;;;;;;;17.70;7.47;;;;;;;1.32;94.21;100952.97;4952169;28;20467;-67
2021/12/07 09:33:25;;;;;;;16.52;7.55;;;;;;;1.34;94.15;100953.72;4953925;28;20035;-67
2021/12/07 09:35:51;;;;;;;17.10;6.87;;;;;;;1.38;94.16;100962.94;4971522;28;20023;-68
2021/12/07 09:38:17;;;;;;;22.02;7.25;;;;;;;1.34;94.29;100956.28;4971168;28;20038;-67
2021/12/07 09:40:43;;;;;;;18.48;7.35;;;;;;;1.40;94.46;100945.81;4971049;28;20034;-68
2021/12/07 09:43:11;;;;;;;18.42;7.00;;;;;;;1.43;94.39;100949.94;4959625;28;20031;-66
2021/12/07 09:45:38;;;;;;;14.27;6.37;;;;;;;1.47;94.34;100946.38;4970253;28;20517;-67
2021/12/07 09:48:06;;;;;;;17.17;7.30;;;;;;;1.48;94.60;100941.19;4966123;28;20486;-67
2021/12/07 09:50:34;;;;;;;16.85;7.30;;;;;;;1.53;94.11;100948.69;4963467;28;20070;-67
2021/12/07 09:53:00;;;;;;;16.88;7.22;;;;;;;1.54;94.14;100952.88;4965361;28;20467;-68
2021/12/07 09:55:28;;;;;;;18.33;7.72;;;;;;;1.55;93.99;100955.41;4974789;28;20030;-68
2021/12/07 09:57:53;;;;;;;18.90;8.82;;;;;;;1.60;94.51;100957.75;4974618;28;20455;-68
2021/12/07 10:00:22;;;;;;;17.08;7.47;;;;;;;1.65;94.04;100955.00;4974283;28;20049;-67
2021/12/07 10:02:48;;;;;;;17.40;6.78;;;;;;;1.67;94.12;100948.13;4969228;28;20505;-68
2021/12/07 10:05:17;;;;;;;18.20;6.90;;;;;;;1.69;94.27;100947.13;4963006;28;20490;-68
2021/12/07 10:07:42;;;;;;;17.98;6.72;;;;;;;1.72;94.10;100930.81;4955536;28;20058;-68
2021/12/07 10:10:17;;;;;;;17.27;6.43;;;;;;;1.77;94.07;100939.13;4965831;28;20054;-69
2021/12/07 10:12:42;;;;;;;17.25;7.68;;;;;;;1.82;94.33;100944.88;4977610;28;20709;-67
2021/12/07 10:15:09;;;;;;;22.92;6.95;;;;;;;1.87;94.30;100953.19;4974108;28;20625;-67
2021/12/07 10:17:38;;;;;;;15.95;6.50;;;;;;;1.89;94.00;100946.25;4970222;28;20034;-70
2021/12/07 10:20:32;;;;;;;20.00;7.60;;;;;;;1.94;94.00;100926.44;4965134;28;20479;-67
2021/12/07 10:23:04;;;;;;;16.92;7.53;;;;;;;1.98;93.90;100922.84;4970116;28;20083;-67
2021/12/07 10:25:30;;;;;;;17.88;7.70;;;;;;;1.99;93.51;100929.63;4971349;28;20110;-67
2021/12/07 10:27:57;;;;;;;19.27;7.18;;;;;;;2.03;93.68;100931.16;4968604;28;20166;-67
2021/12/07 10:30:23;;;;;;;20.13;7.88;;;;;;;2.04;93.83;100922.59;4970506;28;20030;-67
2021/12/07 10:33:05;;;;;;;19.98;8.23;;;;;;;2.16;93.61;100935.72;4969795;28;20546;-66
2021/12/07 10:35:33;;;;;;;18.50;8.00;;;;;;;2.18;93.49;100928.78;4973622;28;20031;-67
2021/12/07 10:38:10;;;;;;;18.35;7.45;;;;;;;2.23;93.88;100921.75;4971931;28;20031;-66
2021/12/07 10:40:53;;;;;;;19.35;7.57;;;;;;;2.24;93.48;100918.31;4955848;28;20460;-66
2021/12/07 10:43:18;;;;;;;15.82;7.30;;;;;;;2.28;93.22;100900.16;4973270;28;20018;-66
2021/12/07 10:45:43;;;;;;;19.30;7.90;;;;;;;2.33;93.68;100903.34;4973269;28;20026;-67
2021/12/07 10:48:22;;;;;;;15.35;7.63;;;;;;;2.40;93.36;100898.78;4972637;28;20027;-68
2021/12/07 10:50:48;;;;;;;16.52;7.03;;;;;;;2.42;93.47;100891.88;4972998;28;20035;-67
2021/12/07 10:53:13;;;;;;;18.02;7.32;;;;;;;2.47;93.00;100878.88;4972535;28;20034;-67
2021/12/07 10:55:39;;;;;;;18.45;7.70;;;;;;;2.53;93.52;100881.97;4969726;28;20027;-68
2021/12/07 10:58:05;;;;;;;16.52;7.55;;;;;;;2.56;93.24;100874.13;4965941;28;20113;-67
2021/12/07 11:00:40;;;;;;;17.15;6.70;;;;;;;2.56;93.11;100869.00;4970340;28;20035;-67
2021/12/07 11:03:11;;;;;;;16.13;6.78;;;;;;;2.63;92.62;100865.22;4968898;28;20475;-66
2021/12/07 11:05:44;;;;;;;15.45;6.47;;;;;;;2.64;92.84;100853.28;4971244;28;20035;-68
2021/12/07 11:08:10;;;;;;;17.33;7.03;;;;;;;2.69;92.46;100847.91;4971963;28;20031;-68
2021/12/07 11:10:39;;;;;;;16.40;6.63;;;;;;;2.73;92.71;100852.00;4966482;28;20125;-68
2021/12/07 11:13:17;;;;;;;17.50;6.63;;;;;;;2.76;92.91;100849.31;4966025;28;20054;-67
2021/12/07 11:15:56;;;;;;;16.20;6.43;;;;;;;2.81;92.22;100837.94;4967576;28;20101;-67
2021/12/07 11:18:39;;;;;;;18.35;6.65;;;;;;;2.86;92.81;100837.69;4972631;28;20143;-67
2021/12/07 11:21:09;;;;;;;16.10;5.72;;;;;;;2.87;91.69;100834.25;4971016;28;20148;-67
2021/12/07 11:23:39;;;;;;;19.02;6.22;;;;;;;2.92;92.29;100830.53;4972812;28;20034;-67
2021/12/07 11:31:31;;;;;;;13.65;6.15;;;;;;;2.99;90.79;100831.06;4973321;28;20057;-69
2021/12/07 11:34:07;;;;;;;15.02;5.60;;;;;;;3.02;90.79;100836.03;4965573;28;20114;-69
2021/12/07 11:36:37;;;;;;;16.90;6.28;;;;;;;3.04;90.75;100829.09;4969170;28;20062;-69
2021/12/07 11:39:18;;;;;;;18.23;6.60;;;;;;;3.08;90.43;100830.59;4972513;28;20030;-69
2021/12/07 11:41:48;;;;;;;13.90;6.38;;;;;;;3.07;90.07;100823.81;4973101;28;20027;-69
2021/12/07 11:44:13;;;;;;;18.40;6.00;;;;;;;3.11;89.50;100827.06;4972560;28;20035;-68
2021/12/07 11:46:46;;;;;;;15.77;5.85;;;;;;;3.12;89.39;100815.91;4953186;28;20523;-69
2021/12/07 11:49:14;;;;;;;17.00;5.88;;;;;;;3.18;89.52;100808.72;4962246;28;20368;-67
2021/12/07 11:51:42;;;;;;;15.53;6.03;;;;;;;3.20;89.88;100809.47;4965072;28;20096;-67
2021/12/07 11:54:09;;;;;;;18.48;6.28;;;;;;;3.23;89.14;100803.38;4969951;28;20678;-67
2021/12/07 11:56:35;;;;;;;17.13;6.43;;;;;;;3.25;89.16;100806.66;4952238;28;20019;-68
2021/12/07 11:59:01;;;;;;;14.60;5.95;;;;;;;3.27;89.00;100804.00;4968924;28;20049;-69
2021/12/07 12:01:26;;;;;;;17.10;6.30;;;;;;;3.33;88.80;100803.72;4970015;28;20014;-68
2021/12/07 12:03:52;;;;;;;17.25;6.22;;;;;;;3.31;88.32;100795.28;4969571;28;20026;-68
2021/12/07 12:06:49;;;;;;;;;;;;;;;;;;;;;
2021/12/07 12:09:16;;;;;;;18.15;6.50;;;;;;;3.39;88.77;100783.72;5006676;23;20493;-69
2021/12/07 12:12:10;;;;;;;16.63;6.55;;;;;;;3.44;88.42;100781.75;5040605;23;20055;-78
2021/12/07 12:15:15;;;;;;;18.40;6.97;;;;;;;3.42;87.48;100788.66;4916429;29;20043;-78
2021/12/07 12:18:00;;;;;;;23.55;11.70;;;;;;;3.41;87.45;100765.69;4908269;29;20571;-77
2021/12/07 12:20:56;;;;;;;18.92;8.23;;;;;;;3.25;87.19;100734.91;4922198;29;20040;-77
2021/12/07 12:24:06;;;;;;;;;;;;;;;;;;;;;
2021/12/07 12:27:00;;;;;;;;;;;;;;;;;;;;;
2021/12/07 12:29:41;;;;;;;19.85;7.97;;;;;;;3.39;87.01;100718.81;4915855;29;20095;-76
2021/12/07 12:32:10;;;;;;;17.48;7.78;;;;;;;3.26;87.31;100699.84;4917613;29;20043;-75
2021/12/07 12:34:57;;;;;;;18.65;6.93;;;;;;;3.26;87.26;100694.72;4942449;29;20035;-75
2021/12/07 12:37:32;;;;;;;16.70;6.30;;;;;;;3.26;86.36;100699.84;4911113;29;20079;-75
2021/12/07 12:40:10;;;;;;;20.58;6.78;;;;;;;3.39;86.56;100711.13;4939398;29;20419;-75
2021/12/07 12:42:54;;;;;;;17.52;6.13;;;;;;;3.42;86.44;100708.38;4900992;29;20040;-75
2021/12/07 12:45:41;;;;;;;16.42;6.30;;;;;;;3.50;86.78;100713.94;4943977;28;20074;-76
2021/12/07 12:48:56;;;;;;;15.60;5.78;;;;;;;3.44;86.47;100693.72;4954772;28;20039;-78
2021/12/07 12:51:47;;;;;;;15.32;5.60;;;;;;;3.53;86.84;100698.38;4895981;29;20032;-76
2021/12/07 12:54:32;;;;;;;13.48;5.53;;;;;;;3.39;86.45;100664.97;4893534;29;20077;-77
2021/12/07 13:13:47;;;;;;;14.38;4.10;;;;;;;3.58;85.57;100614.31;4970400;28;20402;-70
2021/12/07 13:16:15;;;;;;;13.45;4.43;;;;;;;3.58;85.94;100603.25;4949684;29;20032;-70
2021/12/07 13:18:42;;;;;;;13.40;4.15;;;;;;;3.57;86.06;100587.03;4968475;28;20031;-70
2021/12/07 13:21:24;;;;;;;11.73;4.25;;;;;;;3.57;86.38;100581.91;4958898;28;20034;-71
2021/12/07 13:24:03;;;;;;;13.73;4.47;;;;;;;3.61;86.19;100578.25;4970210;28;20042;-72
2021/12/07 13:26:37;;;;;;;15.65;4.45;;;;;;;3.57;86.40;100576.78;4964306;28;20070;-70
2021/12/07 13:29:16;;;;;;;12.43;4.28;;;;;;;3.64;86.24;100577.25;4973055;28;20410;-71
2021/12/07 13:31:56;;;;;;;14.68;4.25;;;;;;;3.65;86.15;100569.47;4975534;28;20031;-72
2021/12/07 13:34:33;;;;;;;14.27;4.00;;;;;;;3.65;86.02;100569.47;4974322;28;20015;-71
2021/12/07 13:37:02;;;;;;;14.30;4.60;;;;;;;3.61;86.18;100578.25;4975370;28;20419;-71